createdAt,value
2018-10-03T00:00:42.468Z,0
2018-10-03T00:01:51.105Z,0
2018-10-03T00:02:59.748Z,0
2018-10-03T00:04:08.378Z,0
2018-10-03T00:05:17.024Z,0
2018-10-03T00:06:25.666Z,0
2018-10-03T00:07:34.311Z,0
2018-10-03T00:08:43.218Z,0
2018-10-03T00:09:51.854Z,0
2018-10-03T00:11:00.491Z,0
2018-10-03T00:12:09.130Z,0
2018-10-03T00:13:17.783Z,0
2018-10-03T00:14:26.416Z,0
2018-10-03T00:15:35.060Z,0
2018-10-03T00:16:43.695Z,0
2018-10-03T00:17:52.344Z,0
2018-10-03T00:19:00.977Z,0
2018-10-03T00:20:09.618Z,0
2018-10-03T00:21:18.256Z,0
2018-10-03T00:22:26.905Z,0
2018-10-03T00:23:35.542Z,0
2018-10-03T00:24:44.446Z,0
2018-10-03T00:25:53.082Z,0
2018-10-03T00:27:01.718Z,0
2018-10-03T00:28:10.636Z,0
2018-10-03T00:29:19.276Z,0
2018-10-03T00:30:27.920Z,0
2018-10-03T00:31:36.550Z,0
2018-10-03T00:32:45.197Z,0
2018-10-03T00:33:53.833Z,0
2018-10-03T00:35:02.477Z,0
2018-10-03T00:36:11.390Z,0
2018-10-03T00:37:20.021Z,0
2018-10-03T00:38:28.664Z,0
2018-10-03T00:39:37.567Z,0
2018-10-03T00:40:46.216Z,0
2018-10-03T00:41:55.118Z,0
2018-10-03T00:43:03.752Z,0
2018-10-03T00:44:12.384Z,0
2018-10-03T00:45:21.021Z,0
2018-10-03T00:46:29.671Z,0
2018-10-03T00:47:38.307Z,0
2018-10-03T00:48:46.950Z,0
2018-10-03T00:49:55.579Z,0
2018-10-03T00:51:04.496Z,0
2018-10-03T00:52:13.129Z,0
2018-10-03T00:53:21.772Z,0
2018-10-03T00:54:30.674Z,0
2018-10-03T00:55:39.322Z,0
2018-10-03T00:56:47.960Z,0
2018-10-03T00:57:56.605Z,0
2018-10-03T00:59:05.242Z,0
2018-10-03T01:00:14.148Z,0
2018-10-03T01:01:22.793Z,0
2018-10-03T01:02:31.439Z,0
2018-10-03T01:03:40.349Z,0
2018-10-03T01:04:48.979Z,0
2018-10-03T01:05:57.624Z,0
2018-10-03T01:07:06.785Z,0
2018-10-03T01:08:15.435Z,0
2018-10-03T01:09:24.064Z,0
2018-10-03T01:10:32.708Z,0
2018-10-03T01:11:41.609Z,0
2018-10-03T01:12:50.254Z,0
2018-10-03T01:13:59.147Z,0
2018-10-03T01:15:07.799Z,0
2018-10-03T01:16:16.435Z,0
2018-10-03T01:17:25.084Z,0
2018-10-03T01:18:33.723Z,0
2018-10-03T01:19:42.359Z,0
2018-10-03T01:20:51.266Z,0
2018-10-03T01:21:59.902Z,0
2018-10-03T01:23:08.556Z,0
2018-10-03T01:24:17.191Z,0
2018-10-03T01:25:26.099Z,0
2018-10-03T01:26:34.737Z,0
2018-10-03T01:27:43.653Z,0
2018-10-03T01:28:52.288Z,0
2018-10-03T01:30:01.203Z,0
2018-10-03T01:31:10.104Z,0
2018-10-03T01:32:18.749Z,0
2018-10-03T01:33:27.389Z,0
2018-10-03T01:34:36.030Z,0
2018-10-03T01:35:44.930Z,0
2018-10-03T01:36:53.570Z,0
2018-10-03T01:38:02.211Z,0
2018-10-03T01:39:10.854Z,0
2018-10-03T01:40:19.497Z,0
2018-10-03T01:41:28.131Z,0
2018-10-03T01:42:36.770Z,0
2018-10-03T01:43:45.410Z,0
2018-10-03T01:44:54.055Z,0
2018-10-03T01:46:02.692Z,0
2018-10-03T01:47:11.329Z,0
2018-10-03T01:48:20.245Z,0
2018-10-03T01:49:29.151Z,0
2018-10-03T01:50:37.788Z,0
2018-10-03T01:51:47.222Z,0
2018-10-03T01:52:55.862Z,0
2018-10-03T01:54:04.506Z,0
2018-10-03T01:55:13.145Z,0
2018-10-03T01:56:21.785Z,0
2018-10-03T01:57:30.421Z,0
2018-10-03T01:58:39.059Z,0
2018-10-03T01:59:48.228Z,0
2018-10-03T02:00:56.868Z,0
2018-10-03T02:02:05.771Z,0
2018-10-03T02:03:14.408Z,0
2018-10-03T02:04:23.053Z,0
2018-10-03T02:05:31.696Z,0
2018-10-03T02:06:40.337Z,0
2018-10-03T02:07:49.237Z,0
2018-10-03T02:08:57.879Z,0
2018-10-03T02:10:06.518Z,0
2018-10-03T02:11:15.162Z,0
2018-10-03T02:12:24.061Z,0
2018-10-03T02:13:32.702Z,0
2018-10-03T02:14:41.388Z,0
2018-10-03T02:15:49.986Z,0
2018-10-03T02:16:58.638Z,0
2018-10-03T02:18:07.270Z,0
2018-10-03T02:19:15.913Z,0
2018-10-03T02:20:24.551Z,0
2018-10-03T02:21:33.195Z,0
2018-10-03T02:22:41.828Z,0
2018-10-03T02:23:50.466Z,0
2018-10-03T02:24:59.114Z,0
2018-10-03T02:26:07.759Z,0
2018-10-03T02:27:16.396Z,0
2018-10-03T02:28:25.040Z,0
2018-10-03T02:29:33.680Z,0
2018-10-03T02:30:42.328Z,0
2018-10-03T02:31:50.964Z,0
2018-10-03T02:32:59.871Z,0
2018-10-03T02:34:08.519Z,0
2018-10-03T02:35:17.433Z,0
2018-10-03T02:36:26.340Z,0
2018-10-03T02:37:35.257Z,0
2018-10-03T02:38:44.152Z,0
2018-10-03T02:39:53.061Z,0
2018-10-03T02:41:01.954Z,0
2018-10-03T02:42:10.601Z,0
2018-10-03T02:43:19.238Z,0
2018-10-03T02:44:28.468Z,0
2018-10-03T02:45:37.085Z,0
2018-10-03T02:46:45.733Z,0
2018-10-03T02:47:54.897Z,0
2018-10-03T02:49:04.075Z,0
2018-10-03T02:50:12.978Z,0
2018-10-03T02:51:21.614Z,0
2018-10-03T02:52:30.522Z,0
2018-10-03T02:53:39.155Z,0
2018-10-03T02:54:48.075Z,0
2018-10-03T02:55:56.710Z,0
2018-10-03T02:57:05.357Z,0
2018-10-03T02:58:13.988Z,0
2018-10-03T02:59:22.636Z,0
2018-10-03T03:00:31.543Z,0
2018-10-03T03:01:40.350Z,0
2018-10-03T03:02:49.078Z,0
2018-10-03T03:03:57.993Z,0
2018-10-03T03:05:06.900Z,0
2018-10-03T03:06:15.543Z,0
2018-10-03T03:07:24.176Z,0
2018-10-03T03:08:32.884Z,0
2018-10-03T03:09:41.461Z,0
2018-10-03T03:10:50.648Z,0
2018-10-03T03:11:59.560Z,0
2018-10-03T03:13:08.459Z,0
2018-10-03T03:14:17.109Z,0
2018-10-03T03:15:25.753Z,0
2018-10-03T03:16:34.406Z,0
2018-10-03T03:17:43.036Z,0
2018-10-03T03:18:51.688Z,0
2018-10-03T03:20:00.326Z,0
2018-10-03T03:21:08.977Z,0
2018-10-03T03:22:17.608Z,0
2018-10-03T03:23:26.253Z,0
2018-10-03T03:24:34.890Z,0
2018-10-03T03:25:43.804Z,0
2018-10-03T03:26:52.447Z,0
2018-10-03T03:28:01.352Z,0
2018-10-03T03:29:09.992Z,0
2018-10-03T03:30:19.449Z,0
2018-10-03T03:31:28.096Z,0
2018-10-03T03:32:37.540Z,0
2018-10-03T03:33:46.475Z,0
2018-10-03T03:34:55.092Z,0
2018-10-03T03:36:04.003Z,0
2018-10-03T03:37:12.645Z,0
2018-10-03T03:38:21.284Z,0
2018-10-03T03:39:30.196Z,0
2018-10-03T03:40:38.839Z,0
2018-10-03T03:41:47.478Z,0
2018-10-03T03:42:56.125Z,0
2018-10-03T03:44:05.023Z,0
2018-10-03T03:45:13.931Z,0
2018-10-03T03:46:22.571Z,0
2018-10-03T03:47:31.213Z,0
2018-10-03T03:48:40.128Z,0
2018-10-03T03:49:49.030Z,0
2018-10-03T03:50:57.679Z,0
2018-10-03T03:52:06.321Z,0
2018-10-03T03:53:14.965Z,0
2018-10-03T03:54:23.884Z,0
2018-10-03T03:55:32.798Z,0
2018-10-03T03:56:41.444Z,0
2018-10-03T03:57:50.349Z,0
2018-10-03T03:58:58.990Z,0
2018-10-03T04:00:07.638Z,0
2018-10-03T04:01:16.274Z,0
2018-10-03T04:02:25.456Z,0
2018-10-03T04:03:34.097Z,0
2018-10-03T04:04:42.738Z,0
2018-10-03T04:05:51.375Z,0
2018-10-03T04:07:00.353Z,0
2018-10-03T04:08:09.546Z,0
2018-10-03T04:09:18.173Z,0
2018-10-03T04:10:27.077Z,0
2018-10-03T04:11:35.979Z,0
2018-10-03T04:12:44.621Z,0
2018-10-03T04:13:53.260Z,0
2018-10-03T04:15:02.164Z,0
2018-10-03T04:16:10.804Z,0
2018-10-03T04:17:19.457Z,0
2018-10-03T04:18:28.101Z,0
2018-10-03T04:19:37.017Z,0
2018-10-03T04:20:45.914Z,0
2018-10-03T04:21:54.563Z,0
2018-10-03T04:23:03.204Z,0
2018-10-03T04:24:11.850Z,0
2018-10-03T04:25:20.757Z,0
2018-10-03T04:26:29.387Z,0
2018-10-03T04:27:38.037Z,0
2018-10-03T04:28:47.207Z,0
2018-10-03T04:29:55.854Z,0
2018-10-03T04:31:04.491Z,0
2018-10-03T04:32:13.130Z,0
2018-10-03T04:33:21.775Z,0
2018-10-03T04:34:30.412Z,0
2018-10-03T04:35:39.074Z,0
2018-10-03T04:36:47.975Z,0
2018-10-03T04:37:56.604Z,0
2018-10-03T04:39:05.240Z,0
2018-10-03T04:40:13.885Z,0
2018-10-03T04:41:22.528Z,0
2018-10-03T04:42:31.585Z,0
2018-10-03T04:43:40.226Z,0
2018-10-03T04:44:48.864Z,0
2018-10-03T04:45:57.503Z,0
2018-10-03T04:47:06.413Z,0
2018-10-03T04:48:15.319Z,0
2018-10-03T04:49:23.954Z,0
2018-10-03T04:50:32.863Z,0
2018-10-03T04:51:41.504Z,0
2018-10-03T04:52:50.147Z,0
2018-10-03T04:53:58.781Z,0
2018-10-03T04:55:07.684Z,0
2018-10-03T04:56:16.322Z,0
2018-10-03T04:57:24.966Z,0
2018-10-03T04:58:33.605Z,0
2018-10-03T04:59:42.513Z,0
2018-10-03T05:00:51.150Z,0
2018-10-03T05:01:59.790Z,0
2018-10-03T05:03:08.697Z,0
2018-10-03T05:04:17.337Z,4
2018-10-03T05:05:25.989Z,0
2018-10-03T05:06:34.894Z,4
2018-10-03T05:07:43.537Z,0
2018-10-03T05:08:52.176Z,4
2018-10-03T05:10:00.824Z,4
2018-10-03T05:11:09.465Z,4
2018-10-03T05:12:18.095Z,8
2018-10-03T05:13:26.733Z,8
2018-10-03T05:14:35.912Z,8
2018-10-03T05:15:44.547Z,12
2018-10-03T05:16:53.191Z,12
2018-10-03T05:18:01.827Z,16
2018-10-03T05:19:10.469Z,16
2018-10-03T05:20:19.116Z,20
2018-10-03T05:21:27.751Z,24
2018-10-03T05:22:36.650Z,28
2018-10-03T05:23:45.557Z,32
2018-10-03T05:24:54.199Z,40
2018-10-03T05:26:02.836Z,44
2018-10-03T05:27:11.733Z,52
2018-10-03T05:28:20.377Z,56
2018-10-03T05:29:29.283Z,64
2018-10-03T05:30:37.915Z,76
2018-10-03T05:31:46.556Z,80
2018-10-03T05:32:55.460Z,84
2018-10-03T05:34:04.111Z,96
2018-10-03T05:35:13.286Z,100
2018-10-03T05:36:21.924Z,112
2018-10-03T05:37:30.557Z,124
2018-10-03T05:38:39.195Z,140
2018-10-03T05:39:48.354Z,160
2018-10-03T05:40:56.907Z,176
2018-10-03T05:42:05.553Z,188
2018-10-03T05:43:14.185Z,192
2018-10-03T05:44:23.106Z,200
2018-10-03T05:45:31.742Z,216
2018-10-03T05:46:40.385Z,236
2018-10-03T05:47:49.284Z,260
2018-10-03T05:48:57.931Z,284
2018-10-03T05:50:06.575Z,316
2018-10-03T05:51:15.223Z,348
2018-10-03T05:52:23.853Z,364
2018-10-03T05:53:32.495Z,376
2018-10-03T05:54:41.585Z,388
2018-10-03T05:55:50.127Z,408
2018-10-03T05:56:59.034Z,424
2018-10-03T05:58:07.665Z,460
2018-10-03T05:59:16.309Z,480
2018-10-03T06:00:24.944Z,484
2018-10-03T06:01:33.594Z,496
2018-10-03T06:02:42.284Z,516
2018-10-03T06:03:50.873Z,544
2018-10-03T06:04:59.511Z,572
2018-10-03T06:06:08.157Z,580
2018-10-03T06:07:16.784Z,604
2018-10-03T06:08:25.427Z,588
2018-10-03T06:09:34.329Z,576
2018-10-03T06:10:42.981Z,576
2018-10-03T06:11:51.883Z,612
2018-10-03T06:13:00.517Z,696
2018-10-03T06:14:09.429Z,692
2018-10-03T06:15:18.063Z,676
2018-10-03T06:16:26.711Z,712
2018-10-03T06:17:35.876Z,756
2018-10-03T06:18:44.579Z,760
2018-10-03T06:19:53.157Z,792
2018-10-03T06:21:01.805Z,816
2018-10-03T06:22:10.710Z,868
2018-10-03T06:23:19.354Z,900
2018-10-03T06:24:27.985Z,888
2018-10-03T06:25:36.641Z,852
2018-10-03T06:26:45.541Z,692
2018-10-03T06:27:54.616Z,560
2018-10-03T06:29:03.200Z,572
2018-10-03T06:30:11.850Z,580
2018-10-03T06:31:20.491Z,600
2018-10-03T06:32:29.136Z,696
2018-10-03T06:33:38.082Z,808
2018-10-03T06:34:46.680Z,856
2018-10-03T06:35:55.584Z,932
2018-10-03T06:37:04.223Z,1028
2018-10-03T06:38:13.135Z,1032
2018-10-03T06:39:21.813Z,996
2018-10-03T06:40:30.839Z,892
2018-10-03T06:41:39.661Z,1044
2018-10-03T06:42:48.287Z,964
2018-10-03T06:43:56.926Z,840
2018-10-03T06:45:05.568Z,920
2018-10-03T06:46:14.478Z,884
2018-10-03T06:47:23.126Z,948
2018-10-03T06:48:32.029Z,1120
2018-10-03T06:49:40.673Z,1168
2018-10-03T06:50:49.841Z,1048
2018-10-03T06:51:58.478Z,956
2018-10-03T06:53:07.123Z,988
2018-10-03T06:54:15.764Z,1144
2018-10-03T06:55:24.407Z,1232
2018-10-03T06:56:33.043Z,1288
2018-10-03T06:57:41.693Z,1212
2018-10-03T06:58:50.333Z,1180
2018-10-03T06:59:58.976Z,1168
2018-10-03T07:01:07.611Z,1208
2018-10-03T07:02:16.257Z,1380
2018-10-03T07:03:24.896Z,1608
2018-10-03T07:04:33.538Z,1516
2018-10-03T07:05:42.182Z,1812
2018-10-03T07:06:50.824Z,2012
2018-10-03T07:07:59.728Z,2064
2018-10-03T07:09:08.652Z,2028
2018-10-03T07:10:17.826Z,2216
2018-10-03T07:11:26.991Z,2140
2018-10-03T07:12:35.631Z,2280
2018-10-03T07:13:44.272Z,2072
2018-10-03T07:14:52.917Z,1748
2018-10-03T07:16:01.558Z,1584
2018-10-03T07:17:10.494Z,1552
2018-10-03T07:18:19.106Z,1828
2018-10-03T07:19:28.017Z,1728
2018-10-03T07:20:36.655Z,1460
2018-10-03T07:21:45.298Z,2056
2018-10-03T07:22:53.939Z,2068
2018-10-03T07:24:02.583Z,2188
2018-10-03T07:25:11.224Z,2032
2018-10-03T07:26:19.950Z,2016
2018-10-03T07:27:28.503Z,1992
2018-10-03T07:28:37.144Z,2232
2018-10-03T07:29:45.795Z,1776
2018-10-03T07:30:54.960Z,2220
2018-10-03T07:32:03.604Z,2260
2018-10-03T07:33:12.237Z,2092
2018-10-03T07:34:20.889Z,2020
2018-10-03T07:35:29.527Z,2112
2018-10-03T07:36:38.173Z,2436
2018-10-03T07:37:46.805Z,2380
2018-10-03T07:38:55.455Z,2624
2018-10-03T07:40:04.096Z,2688
2018-10-03T07:41:12.737Z,2732
2018-10-03T07:42:21.370Z,2380
2018-10-03T07:43:30.014Z,2528
2018-10-03T07:44:38.662Z,2720
2018-10-03T07:45:47.572Z,2808
2018-10-03T07:46:56.210Z,2940
2018-10-03T07:48:04.880Z,2892
2018-10-03T07:49:13.855Z,2900
2018-10-03T07:50:22.493Z,2836
2018-10-03T07:51:31.146Z,2540
2018-10-03T07:52:40.040Z,2376
2018-10-03T07:53:49.080Z,2476
2018-10-03T07:54:57.716Z,2692
2018-10-03T07:56:06.669Z,2844
2018-10-03T07:57:15.328Z,2620
2018-10-03T07:58:23.947Z,2928
2018-10-03T07:59:32.850Z,3296
2018-10-03T08:00:41.765Z,3224
2018-10-03T08:01:50.405Z,3296
2018-10-03T08:02:59.043Z,2888
2018-10-03T08:04:07.683Z,2652
2018-10-03T08:05:16.596Z,2572
2018-10-03T08:06:25.247Z,2720
2018-10-03T08:07:34.152Z,2736
2018-10-03T08:08:42.798Z,2732
2018-10-03T08:09:51.701Z,2568
2018-10-03T08:11:00.348Z,2384
2018-10-03T08:12:09.250Z,2344
2018-10-03T08:13:17.896Z,2224
2018-10-03T08:14:26.529Z,2112
2018-10-03T08:15:35.183Z,2036
2018-10-03T08:16:44.614Z,2024
2018-10-03T08:17:53.516Z,1984
2018-10-03T08:19:02.150Z,2148
2018-10-03T08:20:10.793Z,1896
2018-10-03T08:21:19.436Z,1832
2018-10-03T08:22:28.080Z,1908
2018-10-03T08:23:36.724Z,1992
2018-10-03T08:24:45.359Z,2112
2018-10-03T08:25:54.003Z,2164
2018-10-03T08:27:02.912Z,1940
2018-10-03T08:28:11.545Z,1944
2018-10-03T08:29:20.192Z,1900
2018-10-03T08:30:28.829Z,2120
2018-10-03T08:31:37.741Z,2328
2018-10-03T08:32:46.499Z,2316
2018-10-03T08:33:55.294Z,2120
2018-10-03T08:35:04.198Z,2324
2018-10-03T08:36:12.843Z,2264
2018-10-03T08:37:21.476Z,2188
2018-10-03T08:38:30.409Z,2192
2018-10-03T08:39:39.047Z,2028
2018-10-03T08:40:47.690Z,2184
2018-10-03T08:41:56.333Z,2196
2018-10-03T08:43:04.965Z,2000
2018-10-03T08:44:13.614Z,2168
2018-10-03T08:45:22.267Z,2268
2018-10-03T08:46:31.487Z,2136
2018-10-03T08:47:40.115Z,2224
2018-10-03T08:48:49.031Z,2252
2018-10-03T08:49:57.925Z,2072
2018-10-03T08:51:06.579Z,2312
2018-10-03T08:52:15.210Z,2412
2018-10-03T08:53:23.853Z,2516
2018-10-03T08:54:32.494Z,2548
2018-10-03T08:55:41.145Z,2500
2018-10-03T08:56:49.788Z,2500
2018-10-03T08:57:58.477Z,2576
2018-10-03T08:59:07.419Z,2568
2018-10-03T09:00:16.591Z,2400
2018-10-03T09:01:25.244Z,2372
2018-10-03T09:02:33.884Z,2252
2018-10-03T09:03:42.581Z,2312
2018-10-03T09:04:51.429Z,2268
2018-10-03T09:06:00.080Z,2360
2018-10-03T09:07:08.983Z,2272
2018-10-03T09:08:17.628Z,2284
2018-10-03T09:09:26.269Z,2232
2018-10-03T09:10:34.923Z,2412
2018-10-03T09:11:43.632Z,2360
2018-10-03T09:12:52.207Z,2352
2018-10-03T09:14:01.104Z,2392
2018-10-03T09:15:09.753Z,2620
2018-10-03T09:16:18.671Z,2656
2018-10-03T09:17:27.313Z,2524
2018-10-03T09:18:36.215Z,2744
2018-10-03T09:19:44.852Z,2752
2018-10-03T09:20:53.502Z,2452
2018-10-03T09:22:02.404Z,2620
2018-10-03T09:23:11.058Z,2788
2018-10-03T09:24:19.968Z,2696
2018-10-03T09:25:28.610Z,2732
2018-10-03T09:26:37.254Z,2596
2018-10-03T09:27:45.901Z,2284
2018-10-03T09:28:54.541Z,2508
2018-10-03T09:30:03.187Z,2572
2018-10-03T09:31:11.828Z,2712
2018-10-03T09:32:20.475Z,2700
2018-10-03T09:33:29.115Z,2276
2018-10-03T09:34:37.762Z,2604
2018-10-03T09:35:46.406Z,2572
2018-10-03T09:36:55.042Z,2676
2018-10-03T09:38:03.690Z,2676
2018-10-03T09:39:12.333Z,2684
2018-10-03T09:40:20.976Z,2644
2018-10-03T09:41:29.880Z,2696
2018-10-03T09:42:38.528Z,2640
2018-10-03T09:43:47.194Z,2608
2018-10-03T09:44:56.210Z,2612
2018-10-03T09:46:04.850Z,2672
2018-10-03T09:47:13.497Z,2600
2018-10-03T09:48:22.137Z,2592
2018-10-03T09:49:30.783Z,2592
2018-10-03T09:50:39.421Z,2616
2018-10-03T09:51:48.067Z,2532
2018-10-03T09:52:56.709Z,1976
2018-10-03T09:54:05.626Z,2292
2018-10-03T09:55:14.276Z,2504
2018-10-03T09:56:23.178Z,2392
2018-10-03T09:57:32.088Z,2488
2018-10-03T09:58:40.735Z,2544
2018-10-03T09:59:49.383Z,2528
2018-10-03T10:00:58.117Z,2568
2018-10-03T10:02:06.666Z,2592
2018-10-03T10:03:15.311Z,2600
2018-10-03T10:04:23.958Z,2568
2018-10-03T10:05:32.599Z,2588
2018-10-03T10:06:41.245Z,2656
2018-10-03T10:07:49.885Z,2596
2018-10-03T10:08:58.529Z,2692
2018-10-03T10:10:07.232Z,2672
2018-10-03T10:11:16.229Z,2680
2018-10-03T10:12:24.761Z,2660
2018-10-03T10:13:33.403Z,2688
2018-10-03T10:14:42.053Z,2744
2018-10-03T10:15:50.696Z,2756
2018-10-03T10:16:59.342Z,2772
2018-10-03T10:18:07.981Z,2832
2018-10-03T10:19:16.631Z,2876
2018-10-03T10:20:25.270Z,2920
2018-10-03T10:21:33.913Z,2780
2018-10-03T10:22:42.554Z,2984
2018-10-03T10:23:51.202Z,2916
2018-10-03T10:24:59.843Z,2164
2018-10-03T10:26:08.511Z,2884
2018-10-03T10:27:17.409Z,2888
2018-10-03T10:28:26.055Z,2896
2018-10-03T10:29:34.961Z,2892
2018-10-03T10:30:43.871Z,2904
2018-10-03T10:31:52.553Z,2896
2018-10-03T10:33:01.295Z,2780
2018-10-03T10:34:09.800Z,2732
2018-10-03T10:35:18.441Z,2708
2018-10-03T10:36:27.089Z,2716
2018-10-03T10:37:35.750Z,2808
2018-10-03T10:38:44.379Z,2824
2018-10-03T10:39:53.288Z,2876
2018-10-03T10:41:02.020Z,2864
2018-10-03T10:42:10.587Z,2860
2018-10-03T10:43:19.704Z,3184
2018-10-03T10:44:28.286Z,3352
2018-10-03T10:45:36.936Z,3304
2018-10-03T10:46:46.467Z,3300
2018-10-03T10:47:54.979Z,3352
2018-10-03T10:49:03.633Z,3284
2018-10-03T10:50:12.299Z,3156
2018-10-03T10:51:20.924Z,3320
2018-10-03T10:52:29.568Z,3240
2018-10-03T10:53:38.213Z,3184
2018-10-03T10:54:47.121Z,3184
2018-10-03T10:55:55.766Z,2344
2018-10-03T10:57:04.409Z,2276
2018-10-03T10:58:13.054Z,1936
2018-10-03T10:59:21.695Z,1888
2018-10-03T11:00:30.347Z,2028
2018-10-03T11:01:38.985Z,2508
2018-10-03T11:02:47.629Z,3572
2018-10-03T11:03:56.272Z,3444
2018-10-03T11:05:04.919Z,3400
2018-10-03T11:06:13.873Z,3924
2018-10-03T11:07:22.474Z,4048
2018-10-03T11:08:31.384Z,4584
2018-10-03T11:09:40.024Z,4028
2018-10-03T11:10:48.669Z,3932
2018-10-03T11:11:57.318Z,3724
2018-10-03T11:13:05.969Z,3440
2018-10-03T11:14:14.607Z,3772
2018-10-03T11:15:23.257Z,4032
2018-10-03T11:16:31.900Z,3608
2018-10-03T11:17:40.548Z,3332
2018-10-03T11:18:49.189Z,2988
2018-10-03T11:19:57.832Z,3172
2018-10-03T11:21:06.472Z,3356
2018-10-03T11:22:15.127Z,3240
2018-10-03T11:23:23.803Z,2752
2018-10-03T11:24:33.198Z,2804
2018-10-03T11:25:41.648Z,2820
2018-10-03T11:26:50.294Z,2984
2018-10-03T11:27:58.949Z,3140
2018-10-03T11:29:07.584Z,4064
2018-10-03T11:30:16.496Z,3856
2018-10-03T11:31:25.130Z,3956
2018-10-03T11:32:34.042Z,3996
2018-10-03T11:33:42.681Z,4132
2018-10-03T11:34:51.328Z,4468
2018-10-03T11:35:59.969Z,3488
2018-10-03T11:37:08.621Z,3784
2018-10-03T11:38:17.277Z,3788
2018-10-03T11:39:25.912Z,3668
2018-10-03T11:40:34.547Z,3424
2018-10-03T11:41:43.194Z,4060
2018-10-03T11:42:52.383Z,3708
2018-10-03T11:44:01.836Z,3356
2018-10-03T11:45:10.337Z,3368
2018-10-03T11:46:18.972Z,3316
2018-10-03T11:47:27.622Z,3348
2018-10-03T11:48:36.528Z,4348
2018-10-03T11:49:45.178Z,4056
2018-10-03T11:50:53.813Z,3868
2018-10-03T11:52:02.461Z,3728
2018-10-03T11:53:11.365Z,3644
2018-10-03T11:54:20.018Z,3740
2018-10-03T11:55:28.653Z,3964
2018-10-03T11:56:37.300Z,3980
2018-10-03T11:57:45.942Z,3324
2018-10-03T11:58:54.596Z,3020
2018-10-03T12:00:03.236Z,3448
2018-10-03T12:01:12.137Z,3260
2018-10-03T12:02:20.781Z,3084
2018-10-03T12:03:29.451Z,3096
2018-10-03T12:04:38.080Z,3036
2018-10-03T12:05:46.718Z,2908
2018-10-03T12:06:55.369Z,2244
2018-10-03T12:08:04.273Z,2412
2018-10-03T12:09:13.018Z,2508
2018-10-03T12:10:21.567Z,3620
2018-10-03T12:11:30.488Z,3664
2018-10-03T12:12:39.663Z,3588
2018-10-03T12:13:48.852Z,3104
2018-10-03T12:14:57.366Z,3092
2018-10-03T12:16:06.014Z,3216
2018-10-03T12:17:14.648Z,3396
2018-10-03T12:18:23.294Z,3372
2018-10-03T12:19:31.942Z,3028
2018-10-03T12:20:41.371Z,3032
2018-10-03T12:21:50.014Z,3364
2018-10-03T12:22:58.667Z,3760
2018-10-03T12:24:07.307Z,3788
2018-10-03T12:25:16.064Z,4328
2018-10-03T12:26:25.061Z,4552
2018-10-03T12:27:33.975Z,4868
2018-10-03T12:28:42.619Z,4752
2018-10-03T12:29:51.266Z,4548
2018-10-03T12:30:59.901Z,4356
2018-10-03T12:32:08.557Z,3500
2018-10-03T12:33:17.225Z,3492
2018-10-03T12:34:25.849Z,3580
2018-10-03T12:35:34.757Z,3484
2018-10-03T12:36:43.396Z,3528
2018-10-03T12:37:52.049Z,3588
2018-10-03T12:39:00.701Z,3832
2018-10-03T12:40:09.347Z,3792
2018-10-03T12:41:18.241Z,3672
2018-10-03T12:42:27.157Z,3576
2018-10-03T12:43:36.061Z,3796
2018-10-03T12:44:44.715Z,3848
2018-10-03T12:45:53.351Z,3444
2018-10-03T12:47:02.002Z,2128
2018-10-03T12:48:10.637Z,2792
2018-10-03T12:49:19.291Z,2052
2018-10-03T12:50:28.030Z,1944
2018-10-03T12:51:36.945Z,1868
2018-10-03T12:52:45.587Z,1816
2018-10-03T12:53:54.244Z,2840
2018-10-03T12:55:03.166Z,1668
2018-10-03T12:56:12.077Z,1628
2018-10-03T12:57:20.981Z,1596
2018-10-03T12:58:29.620Z,1700
2018-10-03T12:59:38.274Z,1652
2018-10-03T13:00:46.913Z,1684
2018-10-03T13:01:55.829Z,1756
2018-10-03T13:03:04.725Z,1724
2018-10-03T13:04:13.382Z,1812
2018-10-03T13:05:22.283Z,1932
2018-10-03T13:06:30.937Z,1904
2018-10-03T13:07:39.845Z,2096
2018-10-03T13:08:48.756Z,2752
2018-10-03T13:09:57.659Z,2640
2018-10-03T13:11:06.570Z,2852
2018-10-03T13:12:15.203Z,2756
2018-10-03T13:13:23.851Z,2496
2018-10-03T13:14:32.773Z,2168
2018-10-03T13:15:41.944Z,2128
2018-10-03T13:16:50.590Z,2008
2018-10-03T13:17:59.224Z,1776
2018-10-03T13:19:08.132Z,1652
2018-10-03T13:20:16.777Z,1596
2018-10-03T13:21:25.427Z,1596
2018-10-03T13:22:34.069Z,1616
2018-10-03T13:23:42.976Z,1688
2018-10-03T13:24:51.618Z,1724
2018-10-03T13:26:00.269Z,1884
2018-10-03T13:27:08.908Z,2176
2018-10-03T13:28:17.556Z,2516
2018-10-03T13:29:26.199Z,3244
2018-10-03T13:30:34.920Z,2804
2018-10-03T13:31:43.489Z,3488
2018-10-03T13:32:52.133Z,3576
2018-10-03T13:34:00.786Z,3352
2018-10-03T13:35:09.953Z,3740
2018-10-03T13:36:18.602Z,3720
2018-10-03T13:37:27.249Z,3644
2018-10-03T13:38:36.156Z,3580
2018-10-03T13:39:44.797Z,3444
2018-10-03T13:40:53.477Z,3096
2018-10-03T13:42:02.091Z,2872
2018-10-03T13:43:10.741Z,2820
2018-10-03T13:44:19.379Z,2784
2018-10-03T13:45:28.297Z,2612
2018-10-03T13:46:36.947Z,2448
2018-10-03T13:47:45.584Z,2548
2018-10-03T13:48:54.505Z,2460
2018-10-03T13:50:03.151Z,2304
2018-10-03T13:51:11.796Z,2276
2018-10-03T13:52:20.443Z,2236
2018-10-03T13:53:29.092Z,2120
2018-10-03T13:54:37.736Z,1960
2018-10-03T13:55:46.380Z,1952
2018-10-03T13:56:55.293Z,1976
2018-10-03T13:58:04.204Z,2144
2018-10-03T13:59:12.847Z,1844
2018-10-03T14:00:21.756Z,2048
2018-10-03T14:01:30.659Z,1920
2018-10-03T14:02:39.313Z,1768
2018-10-03T14:03:47.953Z,1760
2018-10-03T14:04:56.600Z,1740
2018-10-03T14:06:05.513Z,1856
2018-10-03T14:07:14.154Z,1980
2018-10-03T14:08:22.796Z,1816
2018-10-03T14:09:31.441Z,2068
2018-10-03T14:10:40.080Z,1996
2018-10-03T14:11:48.726Z,1636
2018-10-03T14:12:57.641Z,2108
2018-10-03T14:14:06.288Z,1936
2018-10-03T14:15:14.930Z,1932
2018-10-03T14:16:23.570Z,2056
2018-10-03T14:17:32.221Z,1960
2018-10-03T14:18:41.301Z,1684
2018-10-03T14:19:49.860Z,1540
2018-10-03T14:20:58.498Z,1384
2018-10-03T14:22:07.147Z,1340
2018-10-03T14:23:15.788Z,1284
2018-10-03T14:24:24.504Z,1256
2018-10-03T14:25:33.478Z,1260
2018-10-03T14:26:42.123Z,1272
2018-10-03T14:27:50.772Z,1492
2018-10-03T14:28:59.419Z,1480
2018-10-03T14:30:08.065Z,1196
2018-10-03T14:31:16.700Z,1164
2018-10-03T14:32:25.615Z,1164
2018-10-03T14:33:34.256Z,1148
2018-10-03T14:34:43.182Z,1152
2018-10-03T14:35:51.814Z,1252
2018-10-03T14:37:00.460Z,1400
2018-10-03T14:38:09.098Z,1152
2018-10-03T14:39:17.756Z,1124
2018-10-03T14:40:26.389Z,1116
2018-10-03T14:41:35.033Z,1132
2018-10-03T14:42:43.673Z,1412
2018-10-03T14:43:52.325Z,1420
2018-10-03T14:45:00.969Z,1412
2018-10-03T14:46:09.609Z,1404
2018-10-03T14:47:18.523Z,1380
2018-10-03T14:48:27.425Z,1356
2018-10-03T14:49:36.338Z,1348
2018-10-03T14:50:44.977Z,1336
2018-10-03T14:51:53.625Z,1316
2018-10-03T14:53:02.260Z,1308
2018-10-03T14:54:10.909Z,1304
2018-10-03T14:55:19.551Z,1284
2018-10-03T14:56:28.202Z,1280
2018-10-03T14:57:36.834Z,1272
2018-10-03T14:58:45.562Z,1264
2018-10-03T14:59:54.126Z,1272
2018-10-03T15:01:02.770Z,1272
2018-10-03T15:02:11.673Z,1336
2018-10-03T15:03:20.328Z,1344
2018-10-03T15:04:28.965Z,1352
2018-10-03T15:05:37.611Z,1408
2018-10-03T15:06:46.255Z,1336
2018-10-03T15:07:54.891Z,1324
2018-10-03T15:09:03.812Z,1364
2018-10-03T15:10:12.448Z,1444
2018-10-03T15:11:21.103Z,1504
2018-10-03T15:12:29.739Z,1528
2018-10-03T15:13:38.385Z,1568
2018-10-03T15:14:47.026Z,1596
2018-10-03T15:15:55.936Z,1552
2018-10-03T15:17:04.573Z,1468
2018-10-03T15:18:13.261Z,1324
2018-10-03T15:19:21.863Z,1200
2018-10-03T15:20:30.507Z,1124
2018-10-03T15:21:39.150Z,1096
2018-10-03T15:22:47.792Z,1148
2018-10-03T15:23:56.433Z,1176
2018-10-03T15:25:05.072Z,1196
2018-10-03T15:26:13.990Z,1132
2018-10-03T15:27:22.632Z,1100
2018-10-03T15:28:31.281Z,1068
2018-10-03T15:29:39.932Z,1040
2018-10-03T15:30:48.568Z,1012
2018-10-03T15:31:57.213Z,1032
2018-10-03T15:33:05.858Z,1036
2018-10-03T15:34:14.501Z,1040
2018-10-03T15:35:23.203Z,1076
2018-10-03T15:36:31.801Z,1124
2018-10-03T15:37:40.460Z,1092
2018-10-03T15:38:49.085Z,988
2018-10-03T15:39:57.731Z,912
2018-10-03T15:41:06.374Z,892
2018-10-03T15:42:15.130Z,892
2018-10-03T15:43:23.668Z,888
2018-10-03T15:44:32.573Z,872
2018-10-03T15:45:41.494Z,864
2018-10-03T15:46:50.403Z,848
2018-10-03T15:47:59.098Z,816
2018-10-03T15:49:07.689Z,800
2018-10-03T15:50:16.333Z,796